sensor_id;sensor_type;location;lat;lon;timestamp;P1;durP1;ratioP1;P2;durP2;ratioP2
11287;SDS011;5700;50.996;7.044;2023-05-07T00:02:49;3.90;;;2.05;;
11287;SDS011;5700;50.996;7.044;2023-05-07T00:05:51;3.80;;;2.33;;
11287;SDS011;5700;50.996;7.044;2023-05-07T00:08:52;3.33;;;2.25;;
11287;SDS011;5700;50.996;7.044;2023-05-07T00:11:55;6.38;;;3.25;;
11287;SDS011;5700;50.996;7.044;2023-05-07T00:14:57;5.47;;;2.30;;
11287;SDS011;5700;50.996;7.044;2023-05-07T00:17:59;3.25;;;2.30;;
11287;SDS011;5700;50.996;7.044;2023-05-07T00:21:00;2.85;;;1.95;;
11287;SDS011;5700;50.996;7.044;2023-05-07T00:24:02;3.90;;;2.30;;
11287;SDS011;5700;50.996;7.044;2023-05-07T00:27:05;3.25;;;2.13;;
11287;SDS011;5700;50.996;7.044;2023-05-07T00:30:06;3.80;;;2.20;;
11287;SDS011;5700;50.996;7.044;2023-05-07T00:33:09;4.93;;;2.10;;
11287;SDS011;5700;50.996;7.044;2023-05-07T00:36:10;2.50;;;1.70;;
11287;SDS011;5700;50.996;7.044;2023-05-07T00:39:12;3.83;;;1.88;;
11287;SDS011;5700;50.996;7.044;2023-05-07T00:42:15;5.57;;;2.10;;
11287;SDS011;5700;50.996;7.044;2023-05-07T00:45:16;3.30;;;2.08;;
11287;SDS011;5700;50.996;7.044;2023-05-07T00:48:18;2.40;;;1.67;;
11287;SDS011;5700;50.996;7.044;2023-05-07T00:51:20;3.92;;;1.92;;
11287;SDS011;5700;50.996;7.044;2023-05-07T00:54:21;2.92;;;1.90;;
11287;SDS011;5700;50.996;7.044;2023-05-07T00:57:26;3.00;;;1.70;;
11287;SDS011;5700;50.996;7.044;2023-05-07T01:00:28;4.50;;;1.92;;
11287;SDS011;5700;50.996;7.044;2023-05-07T01:03:30;5.57;;;1.95;;
11287;SDS011;5700;50.996;7.044;2023-05-07T01:06:32;2.92;;;2.03;;
11287;SDS011;5700;50.996;7.044;2023-05-07T01:09:34;3.35;;;2.30;;
11287;SDS011;5700;50.996;7.044;2023-05-07T01:12:37;5.15;;;1.95;;
11287;SDS011;5700;50.996;7.044;2023-05-07T01:15:41;3.03;;;1.92;;
11287;SDS011;5700;50.996;7.044;2023-05-07T01:18:42;2.20;;;1.73;;
11287;SDS011;5700;50.996;7.044;2023-05-07T01:21:45;3.10;;;2.00;;
11287;SDS011;5700;50.996;7.044;2023-05-07T01:24:49;3.33;;;2.33;;
11287;SDS011;5700;50.996;7.044;2023-05-07T01:27:51;4.20;;;2.30;;
11287;SDS011;5700;50.996;7.044;2023-05-07T01:30:53;3.72;;;2.15;;
11287;SDS011;5700;50.996;7.044;2023-05-07T01:33:56;2.17;;;1.67;;
11287;SDS011;5700;50.996;7.044;2023-05-07T01:36:59;3.33;;;1.80;;
11287;SDS011;5700;50.996;7.044;2023-05-07T01:40:02;3.55;;;1.60;;
11287;SDS011;5700;50.996;7.044;2023-05-07T01:43:04;3.15;;;1.83;;
11287;SDS011;5700;50.996;7.044;2023-05-07T01:46:06;3.78;;;2.25;;
11287;SDS011;5700;50.996;7.044;2023-05-07T01:49:09;4.10;;;2.13;;
11287;SDS011;5700;50.996;7.044;2023-05-07T01:52:11;2.90;;;1.83;;
11287;SDS011;5700;50.996;7.044;2023-05-07T01:55:14;4.38;;;1.80;;
11287;SDS011;5700;50.996;7.044;2023-05-07T01:58:15;3.78;;;1.75;;
11287;SDS011;5700;50.996;7.044;2023-05-07T02:01:17;4.32;;;2.10;;
11287;SDS011;5700;50.996;7.044;2023-05-07T02:04:19;2.88;;;1.98;;
11287;SDS011;5700;50.996;7.044;2023-05-07T02:07:20;2.92;;;1.98;;
11287;SDS011;5700;50.996;7.044;2023-05-07T02:10:23;5.97;;;2.20;;
11287;SDS011;5700;50.996;7.044;2023-05-07T02:13:25;3.72;;;2.30;;
11287;SDS011;5700;50.996;7.044;2023-05-07T02:16:27;3.17;;;1.60;;
11287;SDS011;5700;50.996;7.044;2023-05-07T02:19:29;6.05;;;1.88;;
11287;SDS011;5700;50.996;7.044;2023-05-07T02:22:31;2.80;;;2.10;;
11287;SDS011;5700;50.996;7.044;2023-05-07T02:25:33;2.75;;;1.63;;
11287;SDS011;5700;50.996;7.044;2023-05-07T02:28:35;3.67;;;2.13;;
11287;SDS011;5700;50.996;7.044;2023-05-07T02:31:36;4.78;;;1.92;;
11287;SDS011;5700;50.996;7.044;2023-05-07T02:34:38;2.65;;;1.95;;
11287;SDS011;5700;50.996;7.044;2023-05-07T02:37:39;2.67;;;1.73;;
11287;SDS011;5700;50.996;7.044;2023-05-07T02:40:42;2.92;;;1.95;;
11287;SDS011;5700;50.996;7.044;2023-05-07T02:43:44;2.85;;;1.65;;
11287;SDS011;5700;50.996;7.044;2023-05-07T02:46:45;2.13;;;1.65;;
11287;SDS011;5700;50.996;7.044;2023-05-07T02:49:47;5.38;;;2.05;;
11287;SDS011;5700;50.996;7.044;2023-05-07T02:52:49;1.88;;;1.50;;
11287;SDS011;5700;50.996;7.044;2023-05-07T02:55:51;2.50;;;1.60;;
11287;SDS011;5700;50.996;7.044;2023-05-07T02:58:53;3.22;;;1.80;;
11287;SDS011;5700;50.996;7.044;2023-05-07T03:01:55;4.25;;;1.98;;
11287;SDS011;5700;50.996;7.044;2023-05-07T03:04:56;2.45;;;1.80;;
11287;SDS011;5700;50.996;7.044;2023-05-07T03:07:58;2.13;;;1.60;;
11287;SDS011;5700;50.996;7.044;2023-05-07T03:11:00;2.42;;;1.70;;
11287;SDS011;5700;50.996;7.044;2023-05-07T03:14:02;2.90;;;1.67;;
11287;SDS011;5700;50.996;7.044;2023-05-07T03:17:03;2.00;;;1.40;;
11287;SDS011;5700;50.996;7.044;2023-05-07T03:20:05;4.00;;;2.13;;
11287;SDS011;5700;50.996;7.044;2023-05-07T03:23:07;4.25;;;1.85;;
11287;SDS011;5700;50.996;7.044;2023-05-07T03:26:10;7.05;;;1.92;;
11287;SDS011;5700;50.996;7.044;2023-05-07T03:29:12;3.63;;;2.00;;
11287;SDS011;5700;50.996;7.044;2023-05-07T03:32:13;2.28;;;1.90;;
11287;SDS011;5700;50.996;7.044;2023-05-07T03:35:15;3.25;;;1.90;;
11287;SDS011;5700;50.996;7.044;2023-05-07T03:38:17;4.15;;;2.15;;
11287;SDS011;5700;50.996;7.044;2023-05-07T03:41:20;3.00;;;1.88;;
11287;SDS011;5700;50.996;7.044;2023-05-07T03:44:21;2.47;;;1.55;;
11287;SDS011;5700;50.996;7.044;2023-05-07T03:47:23;6.38;;;2.10;;
11287;SDS011;5700;50.996;7.044;2023-05-07T03:50:24;4.18;;;2.00;;
11287;SDS011;5700;50.996;7.044;2023-05-07T03:53:26;5.07;;;1.98;;
11287;SDS011;5700;50.996;7.044;2023-05-07T03:56:28;7.97;;;1.83;;
11287;SDS011;5700;50.996;7.044;2023-05-07T03:59:31;3.63;;;1.90;;
11287;SDS011;5700;50.996;7.044;2023-05-07T04:02:32;1.98;;;1.60;;
11287;SDS011;5700;50.996;7.044;2023-05-07T04:05:34;6.60;;;1.95;;
11287;SDS011;5700;50.996;7.044;2023-05-07T04:08:35;3.88;;;1.60;;
11287;SDS011;5700;50.996;7.044;2023-05-07T04:11:38;3.15;;;1.77;;
11287;SDS011;5700;50.996;7.044;2023-05-07T04:14:40;2.42;;;1.65;;
11287;SDS011;5700;50.996;7.044;2023-05-07T04:17:42;3.42;;;1.83;;
11287;SDS011;5700;50.996;7.044;2023-05-07T04:20:43;1.70;;;0.88;;
11287;SDS011;5700;50.996;7.044;2023-05-07T04:23:45;1.30;;;0.90;;
11287;SDS011;5700;50.996;7.044;2023-05-07T04:26:48;1.75;;;0.95;;
11287;SDS011;5700;50.996;7.044;2023-05-07T04:29:51;1.65;;;1.10;;
11287;SDS011;5700;50.996;7.044;2023-05-07T04:32:55;1.65;;;0.93;;
11287;SDS011;5700;50.996;7.044;2023-05-07T04:35:58;0.60;;;0.50;;
11287;SDS011;5700;50.996;7.044;2023-05-07T04:39:02;1.70;;;0.88;;
11287;SDS011;5700;50.996;7.044;2023-05-07T04:42:08;3.60;;;0.95;;
11287;SDS011;5700;50.996;7.044;2023-05-07T04:45:12;1.08;;;0.77;;
11287;SDS011;5700;50.996;7.044;2023-05-07T04:48:15;1.23;;;0.80;;
11287;SDS011;5700;50.996;7.044;2023-05-07T04:51:19;1.95;;;0.77;;
11287;SDS011;5700;50.996;7.044;2023-05-07T04:54:20;2.50;;;1.10;;
11287;SDS011;5700;50.996;7.044;2023-05-07T04:57:23;0.70;;;0.70;;
11287;SDS011;5700;50.996;7.044;2023-05-07T05:00:25;1.80;;;0.75;;
11287;SDS011;5700;50.996;7.044;2023-05-07T05:03:26;1.35;;;1.20;;
11287;SDS011;5700;50.996;7.044;2023-05-07T05:06:28;1.20;;;0.82;;
11287;SDS011;5700;50.996;7.044;2023-05-07T05:09:30;0.90;;;0.75;;
11287;SDS011;5700;50.996;7.044;2023-05-07T05:12:33;1.30;;;0.90;;
11287;SDS011;5700;50.996;7.044;2023-05-07T05:15:35;4.18;;;1.10;;
11287;SDS011;5700;50.996;7.044;2023-05-07T05:18:36;2.38;;;1.60;;
11287;SDS011;5700;50.996;7.044;2023-05-07T05:21:38;2.30;;;1.58;;
11287;SDS011;5700;50.996;7.044;2023-05-07T05:24:39;2.25;;;1.45;;
11287;SDS011;5700;50.996;7.044;2023-05-07T05:27:42;4.00;;;1.77;;
11287;SDS011;5700;50.996;7.044;2023-05-07T05:30:43;2.47;;;1.67;;
11287;SDS011;5700;50.996;7.044;2023-05-07T05:33:45;2.70;;;1.52;;
11287;SDS011;5700;50.996;7.044;2023-05-07T05:36:46;2.50;;;1.35;;
11287;SDS011;5700;50.996;7.044;2023-05-07T05:39:48;2.03;;;1.50;;
11287;SDS011;5700;50.996;7.044;2023-05-07T05:42:51;3.88;;;1.50;;
11287;SDS011;5700;50.996;7.044;2023-05-07T05:45:52;2.40;;;1.40;;
11287;SDS011;5700;50.996;7.044;2023-05-07T05:48:53;2.65;;;1.48;;
11287;SDS011;5700;50.996;7.044;2023-05-07T05:51:55;2.60;;;1.42;;
11287;SDS011;5700;50.996;7.044;2023-05-07T05:54:58;2.20;;;1.38;;
11287;SDS011;5700;50.996;7.044;2023-05-07T05:58:01;2.50;;;1.30;;
11287;SDS011;5700;50.996;7.044;2023-05-07T06:01:02;4.47;;;1.60;;
11287;SDS011;5700;50.996;7.044;2023-05-07T06:04:05;3.95;;;1.40;;
11287;SDS011;5700;50.996;7.044;2023-05-07T06:07:06;3.80;;;1.80;;
11287;SDS011;5700;50.996;7.044;2023-05-07T06:10:08;8.13;;;1.58;;
11287;SDS011;5700;50.996;7.044;2023-05-07T06:13:11;2.95;;;1.33;;
11287;SDS011;5700;50.996;7.044;2023-05-07T06:16:12;4.10;;;1.50;;
11287;SDS011;5700;50.996;7.044;2023-05-07T06:19:13;2.83;;;1.63;;
11287;SDS011;5700;50.996;7.044;2023-05-07T06:22:18;2.78;;;1.60;;
11287;SDS011;5700;50.996;7.044;2023-05-07T06:25:19;2.42;;;1.50;;
11287;SDS011;5700;50.996;7.044;2023-05-07T06:28:22;2.35;;;1.20;;
11287;SDS011;5700;50.996;7.044;2023-05-07T06:31:29;2.70;;;1.45;;
11287;SDS011;5700;50.996;7.044;2023-05-07T06:34:31;3.38;;;1.17;;
11287;SDS011;5700;50.996;7.044;2023-05-07T06:37:32;2.15;;;1.30;;
11287;SDS011;5700;50.996;7.044;2023-05-07T06:40:33;2.13;;;1.45;;
11287;SDS011;5700;50.996;7.044;2023-05-07T06:43:36;2.40;;;1.55;;
11287;SDS011;5700;50.996;7.044;2023-05-07T06:46:38;1.75;;;1.42;;
11287;SDS011;5700;50.996;7.044;2023-05-07T06:49:39;1.48;;;0.95;;
11287;SDS011;5700;50.996;7.044;2023-05-07T06:52:40;2.35;;;1.13;;
11287;SDS011;5700;50.996;7.044;2023-05-07T06:55:42;2.10;;;1.40;;
11287;SDS011;5700;50.996;7.044;2023-05-07T06:58:44;2.35;;;1.13;;
11287;SDS011;5700;50.996;7.044;2023-05-07T07:01:46;2.03;;;1.17;;
11287;SDS011;5700;50.996;7.044;2023-05-07T07:04:47;2.50;;;1.30;;
11287;SDS011;5700;50.996;7.044;2023-05-07T07:07:49;1.92;;;1.38;;
11287;SDS011;5700;50.996;7.044;2023-05-07T07:10:52;3.00;;;1.48;;
11287;SDS011;5700;50.996;7.044;2023-05-07T07:13:55;1.75;;;1.25;;
11287;SDS011;5700;50.996;7.044;2023-05-07T07:17:00;2.70;;;1.27;;
11287;SDS011;5700;50.996;7.044;2023-05-07T07:20:05;1.50;;;1.10;;
11287;SDS011;5700;50.996;7.044;2023-05-07T07:23:07;1.63;;;1.13;;
11287;SDS011;5700;50.996;7.044;2023-05-07T07:26:08;1.77;;;1.15;;
11287;SDS011;5700;50.996;7.044;2023-05-07T07:29:11;2.88;;;1.25;;
11287;SDS011;5700;50.996;7.044;2023-05-07T07:32:13;1.33;;;0.98;;
11287;SDS011;5700;50.996;7.044;2023-05-07T07:35:14;1.15;;;0.77;;
11287;SDS011;5700;50.996;7.044;2023-05-07T07:38:16;1.95;;;1.00;;
11287;SDS011;5700;50.996;7.044;2023-05-07T07:41:17;1.40;;;0.82;;
11287;SDS011;5700;50.996;7.044;2023-05-07T07:44:20;4.22;;;1.23;;
11287;SDS011;5700;50.996;7.044;2023-05-07T07:47:22;2.38;;;1.20;;
11287;SDS011;5700;50.996;7.044;2023-05-07T07:50:23;2.00;;;1.30;;
11287;SDS011;5700;50.996;7.044;2023-05-07T07:53:25;2.20;;;1.30;;
11287;SDS011;5700;50.996;7.044;2023-05-07T07:56:27;2.40;;;1.20;;
11287;SDS011;5700;50.996;7.044;2023-05-07T07:59:29;1.50;;;1.02;;
11287;SDS011;5700;50.996;7.044;2023-05-07T08:02:31;3.33;;;1.13;;
11287;SDS011;5700;50.996;7.044;2023-05-07T08:05:32;1.75;;;1.15;;
11287;SDS011;5700;50.996;7.044;2023-05-07T08:08:34;2.00;;;1.13;;
11287;SDS011;5700;50.996;7.044;2023-05-07T08:11:36;1.55;;;1.00;;
11287;SDS011;5700;50.996;7.044;2023-05-07T08:14:38;1.75;;;1.30;;
11287;SDS011;5700;50.996;7.044;2023-05-07T08:17:40;1.85;;;1.25;;
11287;SDS011;5700;50.996;7.044;2023-05-07T08:20:41;2.15;;;1.00;;
11287;SDS011;5700;50.996;7.044;2023-05-07T08:23:43;3.72;;;1.08;;
11287;SDS011;5700;50.996;7.044;2023-05-07T08:26:44;2.22;;;1.15;;
11287;SDS011;5700;50.996;7.044;2023-05-07T08:29:47;1.08;;;0.93;;
11287;SDS011;5700;50.996;7.044;2023-05-07T08:32:49;2.92;;;1.08;;
11287;SDS011;5700;50.996;7.044;2023-05-07T08:35:51;2.13;;;0.93;;
11287;SDS011;5700;50.996;7.044;2023-05-07T08:38:52;3.63;;;1.30;;
11287;SDS011;5700;50.996;7.044;2023-05-07T08:41:55;2.13;;;1.35;;
11287;SDS011;5700;50.996;7.044;2023-05-07T08:44:59;1.50;;;1.08;;
11287;SDS011;5700;50.996;7.044;2023-05-07T08:48:03;2.45;;;1.10;;
11287;SDS011;5700;50.996;7.044;2023-05-07T08:51:08;2.45;;;1.10;;
11287;SDS011;5700;50.996;7.044;2023-05-07T08:54:15;1.75;;;1.00;;
11287;SDS011;5700;50.996;7.044;2023-05-07T08:57:17;3.65;;;1.20;;
11287;SDS011;5700;50.996;7.044;2023-05-07T09:00:23;2.33;;;0.90;;
11287;SDS011;5700;50.996;7.044;2023-05-07T09:03:24;2.33;;;1.05;;
11287;SDS011;5700;50.996;7.044;2023-05-07T09:06:26;1.40;;;0.90;;
11287;SDS011;5700;50.996;7.044;2023-05-07T09:09:27;1.42;;;0.90;;
11287;SDS011;5700;50.996;7.044;2023-05-07T09:12:29;1.58;;;1.10;;
11287;SDS011;5700;50.996;7.044;2023-05-07T09:15:32;2.90;;;1.10;;
11287;SDS011;5700;50.996;7.044;2023-05-07T09:18:33;1.67;;;0.90;;
11287;SDS011;5700;50.996;7.044;2023-05-07T09:21:35;4.72;;;1.30;;
11287;SDS011;5700;50.996;7.044;2023-05-07T09:24:36;2.80;;;0.95;;
11287;SDS011;5700;50.996;7.044;2023-05-07T09:27:39;5.15;;;0.80;;
11287;SDS011;5700;50.996;7.044;2023-05-07T09:30:43;1.10;;;0.63;;
11287;SDS011;5700;50.996;7.044;2023-05-07T09:33:48;0.50;;;0.50;;
11287;SDS011;5700;50.996;7.044;2023-05-07T09:36:49;0.70;;;0.65;;
11287;SDS011;5700;50.996;7.044;2023-05-07T09:39:50;1.17;;;0.80;;
11287;SDS011;5700;50.996;7.044;2023-05-07T09:42:52;1.02;;;0.65;;
11287;SDS011;5700;50.996;7.044;2023-05-07T09:45:55;2.08;;;0.90;;
11287;SDS011;5700;50.996;7.044;2023-05-07T09:49:01;6.95;;;1.30;;
11287;SDS011;5700;50.996;7.044;2023-05-07T09:52:04;2.67;;;1.10;;
11287;SDS011;5700;50.996;7.044;2023-05-07T09:55:08;2.40;;;1.30;;
11287;SDS011;5700;50.996;7.044;2023-05-07T09:58:10;4.82;;;1.08;;
11287;SDS011;5700;50.996;7.044;2023-05-07T10:01:15;1.95;;;1.08;;
11287;SDS011;5700;50.996;7.044;2023-05-07T10:04:19;1.48;;;0.60;;
11287;SDS011;5700;50.996;7.044;2023-05-07T10:07:21;1.70;;;1.00;;
11287;SDS011;5700;50.996;7.044;2023-05-07T10:10:23;3.10;;;0.93;;
11287;SDS011;5700;50.996;7.044;2023-05-07T10:13:25;2.03;;;1.10;;
11287;SDS011;5700;50.996;7.044;2023-05-07T10:16:28;2.47;;;1.30;;
11287;SDS011;5700;50.996;7.044;2023-05-07T10:19:31;1.48;;;1.02;;
11287;SDS011;5700;50.996;7.044;2023-05-07T10:22:37;1.95;;;1.00;;
11287;SDS011;5700;50.996;7.044;2023-05-07T10:25:40;2.22;;;1.02;;
11287;SDS011;5700;50.996;7.044;2023-05-07T10:28:43;1.92;;;0.75;;
11287;SDS011;5700;50.996;7.044;2023-05-07T10:31:53;1.63;;;0.95;;
11287;SDS011;5700;50.996;7.044;2023-05-07T10:34:57;1.13;;;0.90;;
11287;SDS011;5700;50.996;7.044;2023-05-07T10:38:01;1.70;;;0.90;;
11287;SDS011;5700;50.996;7.044;2023-05-07T10:41:03;1.27;;;0.90;;
11287;SDS011;5700;50.996;7.044;2023-05-07T10:44:05;3.22;;;1.17;;
11287;SDS011;5700;50.996;7.044;2023-05-07T10:47:09;0.98;;;0.85;;
11287;SDS011;5700;50.996;7.044;2023-05-07T10:53:28;4.00;;;1.00;;
11287;SDS011;5700;50.996;7.044;2023-05-07T10:56:29;3.45;;;1.10;;
11287;SDS011;5700;50.996;7.044;2023-05-07T10:59:32;0.93;;;0.77;;
11287;SDS011;5700;50.996;7.044;2023-05-07T11:06:08;2.67;;;0.80;;
11287;SDS011;5700;50.996;7.044;2023-05-07T11:09:10;1.95;;;0.82;;
11287;SDS011;5700;50.996;7.044;2023-05-07T11:12:12;1.83;;;1.05;;
11287;SDS011;5700;50.996;7.044;2023-05-07T11:15:13;3.22;;;1.23;;
11287;SDS011;5700;50.996;7.044;2023-05-07T11:18:17;1.92;;;0.82;;
11287;SDS011;5700;50.996;7.044;2023-05-07T11:24:38;1.48;;;0.82;;
11287;SDS011;5700;50.996;7.044;2023-05-07T11:27:40;1.70;;;0.90;;
11287;SDS011;5700;50.996;7.044;2023-05-07T11:30:42;1.25;;;0.75;;
11287;SDS011;5700;50.996;7.044;2023-05-07T11:33:45;1.00;;;0.60;;
11287;SDS011;5700;50.996;7.044;2023-05-07T11:36:47;1.15;;;0.90;;
11287;SDS011;5700;50.996;7.044;2023-05-07T11:39:49;1.10;;;0.77;;
11287;SDS011;5700;50.996;7.044;2023-05-07T11:42:54;4.57;;;1.15;;
11287;SDS011;5700;50.996;7.044;2023-05-07T11:45:58;2.60;;;0.68;;
11287;SDS011;5700;50.996;7.044;2023-05-07T11:49:07;1.08;;;0.73;;
11287;SDS011;5700;50.996;7.044;2023-05-07T11:52:10;3.17;;;1.10;;
11287;SDS011;5700;50.996;7.044;2023-05-07T11:55:11;3.42;;;0.88;;
11287;SDS011;5700;50.996;7.044;2023-05-07T11:58:18;2.55;;;1.00;;
11287;SDS011;5700;50.996;7.044;2023-05-07T12:01:21;1.25;;;0.80;;
11287;SDS011;5700;50.996;7.044;2023-05-07T12:04:24;15.38;;;1.55;;
11287;SDS011;5700;50.996;7.044;2023-05-07T12:07:26;1.67;;;0.85;;
11287;SDS011;5700;50.996;7.044;2023-05-07T12:10:27;1.38;;;0.80;;
11287;SDS011;5700;50.996;7.044;2023-05-07T12:13:29;0.93;;;0.82;;
11287;SDS011;5700;50.996;7.044;2023-05-07T12:16:30;1.00;;;0.80;;
11287;SDS011;5700;50.996;7.044;2023-05-07T12:19:34;1.60;;;1.00;;
11287;SDS011;5700;50.996;7.044;2023-05-07T12:22:36;1.00;;;0.70;;
11287;SDS011;5700;50.996;7.044;2023-05-07T12:25:38;1.13;;;0.75;;
11287;SDS011;5700;50.996;7.044;2023-05-07T12:28:43;1.50;;;0.60;;
11287;SDS011;5700;50.996;7.044;2023-05-07T12:31:44;0.70;;;0.70;;
11287;SDS011;5700;50.996;7.044;2023-05-07T12:34:49;1.38;;;0.82;;
11287;SDS011;5700;50.996;7.044;2023-05-07T12:37:54;1.33;;;0.80;;
11287;SDS011;5700;50.996;7.044;2023-05-07T12:40:56;0.85;;;0.60;;
11287;SDS011;5700;50.996;7.044;2023-05-07T12:43:57;0.65;;;0.50;;
11287;SDS011;5700;50.996;7.044;2023-05-07T12:47:01;2.03;;;0.90;;
11287;SDS011;5700;50.996;7.044;2023-05-07T12:50:06;3.70;;;0.82;;
11287;SDS011;5700;50.996;7.044;2023-05-07T12:53:08;1.77;;;0.80;;
11287;SDS011;5700;50.996;7.044;2023-05-07T12:56:12;1.95;;;0.80;;
11287;SDS011;5700;50.996;7.044;2023-05-07T12:59:16;2.13;;;0.73;;
11287;SDS011;5700;50.996;7.044;2023-05-07T13:02:18;0.82;;;0.70;;
11287;SDS011;5700;50.996;7.044;2023-05-07T13:05:21;0.95;;;0.80;;
11287;SDS011;5700;50.996;7.044;2023-05-07T13:08:23;1.83;;;0.75;;
11287;SDS011;5700;50.996;7.044;2023-05-07T13:11:25;0.85;;;0.70;;
11287;SDS011;5700;50.996;7.044;2023-05-07T13:14:27;1.60;;;0.70;;
11287;SDS011;5700;50.996;7.044;2023-05-07T13:17:28;0.88;;;0.75;;
11287;SDS011;5700;50.996;7.044;2023-05-07T13:20:32;1.63;;;0.90;;
11287;SDS011;5700;50.996;7.044;2023-05-07T13:23:33;1.77;;;0.93;;
11287;SDS011;5700;50.996;7.044;2023-05-07T13:26:35;0.98;;;0.68;;
11287;SDS011;5700;50.996;7.044;2023-05-07T13:29:36;2.70;;;1.00;;
11287;SDS011;5700;50.996;7.044;2023-05-07T13:32:38;0.70;;;0.55;;
11287;SDS011;5700;50.996;7.044;2023-05-07T13:35:41;1.25;;;0.80;;
11287;SDS011;5700;50.996;7.044;2023-05-07T13:38:43;0.70;;;0.60;;
11287;SDS011;5700;50.996;7.044;2023-05-07T13:41:44;0.85;;;0.70;;
11287;SDS011;5700;50.996;7.044;2023-05-07T13:44:46;1.08;;;0.70;;
11287;SDS011;5700;50.996;7.044;2023-05-07T13:47:47;1.48;;;0.77;;
11287;SDS011;5700;50.996;7.044;2023-05-07T13:50:50;1.30;;;0.88;;
11287;SDS011;5700;50.996;7.044;2023-05-07T13:53:52;2.00;;;1.10;;
11287;SDS011;5700;50.996;7.044;2023-05-07T13:56:54;1.83;;;0.95;;
11287;SDS011;5700;50.996;7.044;2023-05-07T13:59:55;1.65;;;0.80;;
11287;SDS011;5700;50.996;7.044;2023-05-07T14:02:57;1.13;;;0.77;;
11287;SDS011;5700;50.996;7.044;2023-05-07T14:06:00;2.35;;;0.85;;
11287;SDS011;5700;50.996;7.044;2023-05-07T14:09:01;2.65;;;1.25;;
11287;SDS011;5700;50.996;7.044;2023-05-07T14:12:05;2.25;;;0.93;;
11287;SDS011;5700;50.996;7.044;2023-05-07T14:15:07;1.25;;;0.98;;
11287;SDS011;5700;50.996;7.044;2023-05-07T14:18:09;1.35;;;0.77;;
11287;SDS011;5700;50.996;7.044;2023-05-07T14:21:12;2.72;;;1.17;;
11287;SDS011;5700;50.996;7.044;2023-05-07T14:24:14;2.13;;;0.70;;
11287;SDS011;5700;50.996;7.044;2023-05-07T14:27:15;2.35;;;1.25;;
11287;SDS011;5700;50.996;7.044;2023-05-07T14:30:17;6.47;;;1.60;;
11287;SDS011;5700;50.996;7.044;2023-05-07T14:33:18;3.85;;;1.60;;
11287;SDS011;5700;50.996;7.044;2023-05-07T14:36:21;9.13;;;2.38;;
11287;SDS011;5700;50.996;7.044;2023-05-07T14:39:25;5.65;;;2.47;;
11287;SDS011;5700;50.996;7.044;2023-05-07T14:42:27;6.60;;;2.00;;
11287;SDS011;5700;50.996;7.044;2023-05-07T14:45:28;7.35;;;2.40;;
11287;SDS011;5700;50.996;7.044;2023-05-07T14:48:30;7.38;;;2.30;;
11287;SDS011;5700;50.996;7.044;2023-05-07T14:51:33;5.57;;;2.50;;
11287;SDS011;5700;50.996;7.044;2023-05-07T14:54:34;3.17;;;2.08;;
11287;SDS011;5700;50.996;7.044;2023-05-07T14:57:35;4.78;;;2.58;;
11287;SDS011;5700;50.996;7.044;2023-05-07T15:00:37;6.93;;;2.50;;
11287;SDS011;5700;50.996;7.044;2023-05-07T15:03:39;5.22;;;2.78;;
11287;SDS011;5700;50.996;7.044;2023-05-07T15:06:42;4.95;;;3.13;;
11287;SDS011;5700;50.996;7.044;2023-05-07T15:09:43;5.78;;;2.65;;
11287;SDS011;5700;50.996;7.044;2023-05-07T15:12:45;4.18;;;2.55;;
11287;SDS011;5700;50.996;7.044;2023-05-07T15:15:47;5.32;;;2.97;;
11287;SDS011;5700;50.996;7.044;2023-05-07T15:18:49;6.20;;;2.95;;
11287;SDS011;5700;50.996;7.044;2023-05-07T15:21:52;4.03;;;2.45;;
11287;SDS011;5700;50.996;7.044;2023-05-07T15:24:53;4.38;;;2.65;;
11287;SDS011;5700;50.996;7.044;2023-05-07T15:27:56;4.15;;;2.50;;
11287;SDS011;5700;50.996;7.044;2023-05-07T15:30:58;4.68;;;2.65;;
11287;SDS011;5700;50.996;7.044;2023-05-07T15:33:59;4.53;;;2.28;;
11287;SDS011;5700;50.996;7.044;2023-05-07T15:37:02;6.85;;;1.60;;
11287;SDS011;5700;50.996;7.044;2023-05-07T15:40:04;2.33;;;1.88;;
11287;SDS011;5700;50.996;7.044;2023-05-07T15:43:07;3.78;;;1.70;;
11287;SDS011;5700;50.996;7.044;2023-05-07T15:46:08;2.53;;;1.60;;
11287;SDS011;5700;50.996;7.044;2023-05-07T15:49:10;3.60;;;2.30;;
11287;SDS011;5700;50.996;7.044;2023-05-07T15:52:13;3.55;;;1.80;;
11287;SDS011;5700;50.996;7.044;2023-05-07T15:55:15;5.60;;;2.30;;
11287;SDS011;5700;50.996;7.044;2023-05-07T15:58:17;3.67;;;1.95;;
11287;SDS011;5700;50.996;7.044;2023-05-07T16:01:19;4.57;;;2.22;;
11287;SDS011;5700;50.996;7.044;2023-05-07T16:04:20;5.45;;;2.50;;
11287;SDS011;5700;50.996;7.044;2023-05-07T16:07:23;3.67;;;2.40;;
11287;SDS011;5700;50.996;7.044;2023-05-07T16:10:25;4.30;;;2.22;;
11287;SDS011;5700;50.996;7.044;2023-05-07T16:13:26;3.95;;;2.15;;
11287;SDS011;5700;50.996;7.044;2023-05-07T16:16:28;4.78;;;2.28;;
11287;SDS011;5700;50.996;7.044;2023-05-07T16:19:33;3.70;;;2.15;;
11287;SDS011;5700;50.996;7.044;2023-05-07T16:22:36;4.38;;;2.42;;
11287;SDS011;5700;50.996;7.044;2023-05-07T16:25:37;3.67;;;2.28;;
11287;SDS011;5700;50.996;7.044;2023-05-07T16:28:39;5.22;;;2.42;;
11287;SDS011;5700;50.996;7.044;2023-05-07T16:31:40;3.50;;;2.25;;
11287;SDS011;5700;50.996;7.044;2023-05-07T16:34:42;3.45;;;2.00;;
11287;SDS011;5700;50.996;7.044;2023-05-07T16:37:44;3.72;;;2.35;;
11287;SDS011;5700;50.996;7.044;2023-05-07T16:40:46;5.22;;;3.15;;
11287;SDS011;5700;50.996;7.044;2023-05-07T16:43:47;2.63;;;1.85;;
11287;SDS011;5700;50.996;7.044;2023-05-07T16:46:48;3.28;;;1.98;;
11287;SDS011;5700;50.996;7.044;2023-05-07T16:49:52;3.28;;;1.83;;
11287;SDS011;5700;50.996;7.044;2023-05-07T16:52:55;6.25;;;2.28;;
11287;SDS011;5700;50.996;7.044;2023-05-07T16:55:56;4.28;;;2.97;;
11287;SDS011;5700;50.996;7.044;2023-05-07T16:58:58;3.72;;;2.50;;
11287;SDS011;5700;50.996;7.044;2023-05-07T17:01:59;3.25;;;2.25;;
11287;SDS011;5700;50.996;7.044;2023-05-07T17:05:00;3.78;;;2.00;;
11287;SDS011;5700;50.996;7.044;2023-05-07T17:08:03;5.03;;;2.90;;
11287;SDS011;5700;50.996;7.044;2023-05-07T17:11:05;4.78;;;2.55;;
11287;SDS011;5700;50.996;7.044;2023-05-07T17:14:06;5.20;;;2.15;;
11287;SDS011;5700;50.996;7.044;2023-05-07T17:17:08;3.75;;;2.17;;
11287;SDS011;5700;50.996;7.044;2023-05-07T17:20:09;3.25;;;1.92;;
11287;SDS011;5700;50.996;7.044;2023-05-07T17:23:13;2.80;;;1.90;;
11287;SDS011;5700;50.996;7.044;2023-05-07T17:26:15;5.10;;;2.05;;
11287;SDS011;5700;50.996;7.044;2023-05-07T17:29:17;4.15;;;2.08;;
11287;SDS011;5700;50.996;7.044;2023-05-07T17:32:19;4.40;;;2.20;;
11287;SDS011;5700;50.996;7.044;2023-05-07T17:35:20;4.30;;;2.30;;
11287;SDS011;5700;50.996;7.044;2023-05-07T17:38:23;4.05;;;2.40;;
11287;SDS011;5700;50.996;7.044;2023-05-07T17:41:25;4.22;;;2.10;;
11287;SDS011;5700;50.996;7.044;2023-05-07T17:44:26;3.30;;;1.85;;
11287;SDS011;5700;50.996;7.044;2023-05-07T17:47:28;3.72;;;2.22;;
11287;SDS011;5700;50.996;7.044;2023-05-07T17:50:30;3.90;;;2.22;;
11287;SDS011;5700;50.996;7.044;2023-05-07T17:53:33;3.45;;;2.33;;
11287;SDS011;5700;50.996;7.044;2023-05-07T17:56:35;4.63;;;2.17;;
11287;SDS011;5700;50.996;7.044;2023-05-07T17:59:37;5.13;;;2.28;;
11287;SDS011;5700;50.996;7.044;2023-05-07T18:02:39;3.97;;;2.25;;
11287;SDS011;5700;50.996;7.044;2023-05-07T18:05:40;4.68;;;2.50;;
11287;SDS011;5700;50.996;7.044;2023-05-07T18:08:43;4.68;;;2.53;;
11287;SDS011;5700;50.996;7.044;2023-05-07T18:11:45;5.63;;;2.70;;
11287;SDS011;5700;50.996;7.044;2023-05-07T18:14:47;5.85;;;2.65;;
11287;SDS011;5700;50.996;7.044;2023-05-07T18:17:51;3.85;;;2.15;;
11287;SDS011;5700;50.996;7.044;2023-05-07T18:20:53;3.13;;;2.28;;
11287;SDS011;5700;50.996;7.044;2023-05-07T18:23:56;4.43;;;2.50;;
11287;SDS011;5700;50.996;7.044;2023-05-07T18:26:58;4.57;;;2.47;;
11287;SDS011;5700;50.996;7.044;2023-05-07T18:29:59;3.50;;;2.38;;
11287;SDS011;5700;50.996;7.044;2023-05-07T18:33:01;9.32;;;2.53;;
11287;SDS011;5700;50.996;7.044;2023-05-07T18:36:03;2.97;;;1.90;;
11287;SDS011;5700;50.996;7.044;2023-05-07T18:39:06;4.70;;;2.90;;
11287;SDS011;5700;50.996;7.044;2023-05-07T18:42:08;4.95;;;2.72;;
11287;SDS011;5700;50.996;7.044;2023-05-07T18:45:10;5.82;;;2.70;;